MSC Rania — 3EEB3 — position and weather

sailwx.info

Track history (hours):
 
Tides and Currents Weather Stations Pressure Air Temp Water Temp Dewpoint Dewpoint Depression Visibility Wind Speed Wind Dir Waves Ship Positions

MSC Rania

Last reported at 2014-Nov-28 03:33 UTC. Time now 2014-Nov-28 04:17 UTC.
Position N 33°32' W 120°28'.

Length 332 m; draft 12.8 m.

Type: Ship (hazmat cat A). MMSI: 371752000.

Date/timePositionNaut miles runAvg speedWind from/ knotsBaromVisibWave heightAir tempDewpointWater temp
2014-Nov-28 03:33N 33°32' W 120°28'1514.6
2014-Nov-28 02:34N 33°32' W 120°45'1514.6
2014-Nov-28 01:33N 33°33' W 121°03'1414.3
2014-Nov-28 00:33N 33°34' W 121°20'1514.8
2014-Nov-27 23:33N 33°34' W 121°38'1515.0
2014-Nov-27 22:33N 33°35' W 121°56'1515.3
2014-Nov-27 21:33N 33°35' W 122°14'1615.5
2014-Nov-27 20:33N 33°36' W 122°33'1515.3
2014-Nov-27 19:33N 33°36' W 122°51'1515.3
2014-Nov-27 18:33N 33°37' W 123°09'1514.8
2014-Nov-27 17:33N 33°37' W 123°27'1515.2
2014-Nov-27 16:33N 33°37' W 123°46'1615.6
2014-Nov-27 15:33N 33°37' W 124°04'1615.9
2014-Nov-27 14:33N 33°38' W 124°23'1615.9
2014-Nov-27 13:33N 33°41' W 124°42'1616.0
2014-Nov-27 12:33N 33°44' W 125°01'1616.0
2014-Nov-27 11:33N 33°47' W 125°20'1616.1
2014-Nov-27 10:33N 33°50' W 125°39'1616.2
2014-Nov-27 09:33N 33°53' W 125°58'1615.9
2014-Nov-27 08:33N 33°56' W 126°17'1716.0
2014-Nov-27 07:30N 33°60' W 126°37'2016.0
2014-Nov-27 06:17N 34°04' W 127°00'1115.8
2014-Nov-27 05:33N 34°06' W 127°14'1616.1
2014-Nov-27 04:33N 34°09' W 127°33'3415.9
2014-Nov-27 02:27N 34°16' W 128°13'1815.8
2014-Nov-27 01:18N 34°20' W 128°34'1516.0
2014-Nov-27 00:23N 34°23' W 128°51'5116.1
2014-Nov-26 21:12N 34°32' W 129°53'6616.3
2014-Nov-26 17:09N 34°46' W 131°11'  
Track history (hours):
 
Tides and Currents Weather Stations Pressure Air Temp Water Temp Dewpoint Dewpoint Depression Visibility Wind Speed Wind Dir Waves Ship Positions

MSC Rania

Last reported at 2014-Nov-28 03:33 UTC. Time now 2014-Nov-28 04:17 UTC.
Position N 33°32' W 120°28'.

Length 332 m; draft 12.8 m.

Type: Ship (hazmat cat A). MMSI: 371752000.

Date/timePositionNaut miles runAvg speedWind from/ knotsBaromVisibWave heightAir tempDewpointWater temp
2014-Nov-28 03:33N 33°32' W 120°28'1514.6
2014-Nov-28 02:34N 33°32' W 120°45'1514.6
2014-Nov-28 01:33N 33°33' W 121°03'1414.3
2014-Nov-28 00:33N 33°34' W 121°20'1514.8
2014-Nov-27 23:33N 33°34' W 121°38'1515.0
2014-Nov-27 22:33N 33°35' W 121°56'1515.3
2014-Nov-27 21:33N 33°35' W 122°14'1615.5
2014-Nov-27 20:33N 33°36' W 122°33'1515.3
2014-Nov-27 19:33N 33°36' W 122°51'1515.3
2014-Nov-27 18:33N 33°37' W 123°09'1514.8
2014-Nov-27 17:33N 33°37' W 123°27'1515.2
2014-Nov-27 16:33N 33°37' W 123°46'1615.6
2014-Nov-27 15:33N 33°37' W 124°04'1615.9
2014-Nov-27 14:33N 33°38' W 124°23'1615.9
2014-Nov-27 13:33N 33°41' W 124°42'1616.0
2014-Nov-27 12:33N 33°44' W 125°01'1616.0
2014-Nov-27 11:33N 33°47' W 125°20'1616.1
2014-Nov-27 10:33N 33°50' W 125°39'1616.2
2014-Nov-27 09:33N 33°53' W 125°58'1615.9
2014-Nov-27 08:33N 33°56' W 126°17'1716.0
2014-Nov-27 07:30N 33°60' W 126°37'2016.0
2014-Nov-27 06:17N 34°04' W 127°00'1115.8
2014-Nov-27 05:33N 34°06' W 127°14'1616.1
2014-Nov-27 04:33N 34°09' W 127°33'3415.9
2014-Nov-27 02:27N 34°16' W 128°13'1815.8
2014-Nov-27 01:18N 34°20' W 128°34'1516.0
2014-Nov-27 00:23N 34°23' W 128°51'5116.1
2014-Nov-26 21:12N 34°32' W 129°53'6616.3
2014-Nov-26 17:09N 34°46' W 131°11'  

Dump ship's entire track history